createdAt,value
2018-09-11T00:00:23.674Z,21.80
2018-09-11T00:02:57.058Z,21.80
2018-09-11T00:05:30.448Z,21.80
2018-09-11T00:08:03.852Z,21.80
2018-09-11T00:10:37.255Z,21.80
2018-09-11T00:13:10.643Z,21.70
2018-09-11T00:15:45.079Z,21.70
2018-09-11T00:18:18.475Z,21.70
2018-09-11T00:20:51.844Z,21.70
2018-09-11T00:23:25.239Z,21.70
2018-09-11T00:25:58.746Z,21.70
2018-09-11T00:28:32.148Z,21.70
2018-09-11T00:31:05.543Z,21.70
2018-09-11T00:33:38.940Z,21.60
2018-09-11T00:36:12.362Z,21.60
2018-09-11T00:38:45.859Z,21.50
2018-09-11T00:41:19.234Z,21.50
2018-09-11T00:43:52.626Z,21.50
2018-09-11T00:46:26.011Z,21.30
2018-09-11T00:48:59.400Z,21.30
2018-09-11T00:51:33.286Z,21.40
2018-09-11T00:54:06.723Z,21.40
2018-09-11T00:56:40.099Z,21.40
2018-09-11T00:59:13.492Z,21.30
2018-09-11T01:01:46.906Z,21.30
2018-09-11T01:04:20.311Z,21.40
2018-09-11T01:06:53.680Z,21.30
2018-09-11T01:09:27.079Z,21.30
2018-09-11T01:12:00.451Z,21.30
2018-09-11T01:14:33.839Z,21.30
2018-09-11T01:17:07.305Z,21.30
2018-09-11T01:19:40.710Z,21.20
2018-09-11T01:22:14.085Z,21.20
2018-09-11T01:24:47.496Z,21.20
2018-09-11T01:27:21.917Z,21.20
2018-09-11T01:29:55.307Z,21.20
2018-09-11T01:32:28.687Z,21.20
2018-09-11T01:35:03.256Z,21.10
2018-09-11T01:37:36.602Z,21.00
2018-09-11T01:40:10.014Z,21.10
2018-09-11T01:42:43.387Z,20.90
2018-09-11T01:45:16.812Z,20.80
2018-09-11T01:47:50.191Z,20.80
2018-09-11T01:50:23.580Z,20.90
2018-09-11T01:52:56.963Z,20.90
2018-09-11T01:55:30.346Z,20.90
2018-09-11T01:58:03.738Z,20.80
2018-09-11T02:00:37.128Z,20.80
2018-09-11T02:03:10.510Z,20.80
2018-09-11T02:05:43.907Z,20.80
2018-09-11T02:08:17.307Z,20.80
2018-09-11T02:10:50.683Z,20.80
2018-09-11T02:13:24.089Z,20.80
2018-09-11T02:15:57.459Z,20.80
2018-09-11T02:18:30.852Z,20.80
2018-09-11T02:21:04.234Z,20.80
2018-09-11T02:23:37.659Z,20.70
2018-09-11T02:26:11.051Z,20.70
2018-09-11T02:28:44.423Z,20.70
2018-09-11T02:31:17.823Z,20.70
2018-09-11T02:33:51.406Z,20.70
2018-09-11T02:36:24.803Z,20.70
2018-09-11T02:38:58.236Z,20.70
2018-09-11T02:41:31.674Z,20.70
2018-09-11T02:44:05.135Z,20.70
2018-09-11T02:46:38.548Z,20.60
2018-09-11T02:49:11.969Z,20.60
2018-09-11T02:51:45.419Z,20.50
2018-09-11T02:54:18.844Z,20.50
2018-09-11T02:56:52.248Z,20.50
2018-09-11T02:59:25.696Z,20.50
2018-09-11T03:01:59.131Z,20.50
2018-09-11T03:04:32.548Z,20.40
2018-09-11T03:07:05.938Z,20.20
2018-09-11T03:09:39.455Z,20.20
2018-09-11T03:12:12.847Z,20.20
2018-09-11T03:14:46.259Z,20.00
2018-09-11T03:17:20.318Z,20.10
2018-09-11T03:19:53.726Z,20.20
2018-09-11T03:22:27.121Z,20.20
2018-09-11T03:25:00.546Z,20.20
2018-09-11T03:27:33.943Z,20.30
2018-09-11T03:30:08.281Z,20.20
2018-09-11T03:32:41.704Z,20.20
2018-09-11T03:35:15.137Z,20.20
2018-09-11T03:37:48.532Z,20.20
2018-09-11T03:40:21.928Z,20.10
2018-09-11T03:42:55.347Z,20.00
2018-09-11T03:45:28.893Z,19.80
2018-09-11T03:48:02.292Z,19.90
2018-09-11T03:50:35.775Z,19.90
2018-09-11T03:53:09.229Z,20.00
2018-09-11T03:55:42.646Z,19.90
2018-09-11T03:58:17.138Z,20.00
2018-09-11T04:00:50.552Z,19.80
2018-09-11T04:03:23.955Z,19.70
2018-09-11T04:05:57.358Z,19.60
2018-09-11T04:08:30.777Z,19.60
2018-09-11T04:11:04.206Z,19.40
2018-09-11T04:13:37.621Z,19.50
2018-09-11T04:16:11.030Z,19.60
2018-09-11T04:18:44.419Z,19.60
2018-09-11T04:21:17.838Z,19.60
2018-09-11T04:23:51.233Z,19.60
2018-09-11T04:26:24.689Z,19.60
2018-09-11T04:28:58.130Z,19.50
2018-09-11T04:31:31.595Z,19.50
2018-09-11T04:34:05.028Z,19.50
2018-09-11T04:36:38.559Z,19.40
2018-09-11T04:39:11.982Z,19.00
2018-09-11T04:41:45.391Z,18.90
2018-09-11T04:44:18.792Z,18.80
2018-09-11T04:46:52.203Z,19.00
2018-09-11T04:49:25.599Z,19.20
2018-09-11T04:51:59.011Z,19.20
2018-09-11T04:54:32.427Z,19.20
2018-09-11T04:57:05.921Z,19.20
2018-09-11T04:59:39.374Z,19.30
2018-09-11T05:02:12.795Z,19.30
2018-09-11T05:04:46.200Z,19.20
2018-09-11T05:07:19.638Z,19.00
2018-09-11T05:09:53.053Z,19.10
2018-09-11T05:12:26.467Z,19.10
2018-09-11T05:14:59.858Z,19.10
2018-09-11T05:17:33.399Z,19.10
2018-09-11T05:20:06.939Z,19.10
2018-09-11T05:22:40.412Z,19.10
2018-09-11T05:25:13.817Z,19.20
2018-09-11T05:27:47.279Z,18.90
2018-09-11T05:30:20.674Z,18.70
2018-09-11T05:32:54.089Z,18.80
2018-09-11T05:35:27.613Z,18.90
2018-09-11T05:38:01.046Z,19.00
2018-09-11T05:40:34.444Z,19.00
2018-09-11T05:43:07.859Z,19.00
2018-09-11T05:45:41.254Z,19.00
2018-09-11T05:48:14.771Z,19.00
2018-09-11T05:50:48.211Z,19.00
2018-09-11T05:53:21.627Z,19.00
2018-09-11T05:55:55.019Z,19.00
2018-09-11T05:58:28.531Z,19.10
2018-09-11T06:01:01.941Z,19.10
2018-09-11T06:03:35.361Z,19.00
2018-09-11T06:06:08.798Z,19.00
2018-09-11T06:08:42.215Z,19.00
2018-09-11T06:11:15.623Z,19.00
2018-09-11T06:13:49.340Z,19.00
2018-09-11T06:16:22.761Z,18.90
2018-09-11T06:18:56.156Z,18.90
2018-09-11T06:21:29.547Z,19.00
2018-09-11T06:24:02.977Z,18.80
2018-09-11T06:26:36.374Z,19.00
2018-09-11T06:29:09.864Z,19.00
2018-09-11T06:31:43.243Z,19.10
2018-09-11T06:34:16.659Z,19.20
2018-09-11T06:36:50.085Z,19.20
2018-09-11T06:39:23.523Z,19.20
2018-09-11T06:41:56.911Z,19.20
2018-09-11T06:44:30.340Z,19.30
2018-09-11T06:47:03.865Z,19.30
2018-09-11T06:49:37.198Z,19.30
2018-09-11T06:52:10.594Z,19.40
2018-09-11T06:54:44.062Z,19.50
2018-09-11T06:57:17.439Z,19.60
2018-09-11T06:59:50.854Z,19.50
2018-09-11T07:02:24.243Z,19.60
2018-09-11T07:04:57.650Z,19.60
2018-09-11T07:07:31.042Z,19.70
2018-09-11T07:10:04.667Z,19.80
2018-09-11T07:12:38.069Z,19.90
2018-09-11T07:15:11.563Z,19.90
2018-09-11T07:17:44.967Z,19.90
2018-09-11T07:20:18.578Z,19.90
2018-09-11T07:22:51.795Z,20.00
2018-09-11T07:25:25.214Z,20.10
2018-09-11T07:27:58.611Z,20.10
2018-09-11T07:30:32.240Z,20.30
2018-09-11T07:33:05.695Z,20.40
2018-09-11T07:35:39.110Z,20.40
2018-09-11T07:38:12.591Z,20.40
2018-09-11T07:40:46.094Z,20.50
2018-09-11T07:43:19.495Z,20.50
2018-09-11T07:45:52.955Z,20.70
2018-09-11T07:48:26.358Z,20.90
2018-09-11T07:50:59.778Z,21.00
2018-09-11T07:53:33.332Z,21.20
2018-09-11T07:56:06.850Z,21.30
2018-09-11T07:58:40.298Z,21.50
2018-09-11T08:01:13.746Z,21.60
2018-09-11T08:03:47.248Z,21.70
2018-09-11T08:06:20.665Z,21.80
2018-09-11T08:08:54.107Z,21.90
2018-09-11T08:11:27.551Z,22.00
2018-09-11T08:14:01.043Z,21.90
2018-09-11T08:16:34.546Z,21.70
2018-09-11T08:19:07.897Z,21.70
2018-09-11T08:21:41.332Z,21.90
2018-09-11T08:24:14.727Z,22.00
2018-09-11T08:26:48.134Z,21.90
2018-09-11T08:29:21.584Z,22.10
2018-09-11T08:31:55.032Z,22.10
2018-09-11T08:34:28.419Z,22.00
2018-09-11T08:37:01.850Z,22.10
2018-09-11T08:39:36.308Z,22.10
2018-09-11T08:42:09.727Z,22.10
2018-09-11T08:44:43.124Z,22.20
2018-09-11T08:47:16.555Z,22.20
2018-09-11T08:49:49.953Z,22.30
2018-09-11T08:52:23.435Z,22.50
2018-09-11T08:54:56.807Z,22.60
2018-09-11T08:57:30.215Z,22.80
2018-09-11T09:00:03.685Z,22.90
2018-09-11T09:02:37.091Z,23.00
2018-09-11T09:05:10.480Z,23.10
2018-09-11T09:07:43.996Z,23.10
2018-09-11T09:10:17.400Z,23.20
2018-09-11T09:12:50.835Z,23.10
2018-09-11T09:15:24.255Z,23.20
2018-09-11T09:17:57.668Z,23.20
2018-09-11T09:20:31.151Z,23.20
2018-09-11T09:23:04.562Z,23.40
2018-09-11T09:25:37.963Z,23.60
2018-09-11T09:28:11.380Z,23.40
2018-09-11T09:30:44.776Z,23.40
2018-09-11T09:33:18.207Z,23.50
2018-09-11T09:35:51.780Z,23.80
2018-09-11T09:38:25.206Z,23.90
2018-09-11T09:40:58.595Z,23.80
2018-09-11T09:43:32.022Z,23.70
2018-09-11T09:46:11.131Z,23.80
2018-09-11T09:48:44.600Z,23.80
2018-09-11T09:51:18.104Z,23.70
2018-09-11T09:53:51.575Z,23.80
2018-09-11T09:56:24.962Z,23.90
2018-09-11T09:58:58.385Z,23.90
2018-09-11T10:01:37.027Z,24.00
2018-09-11T10:04:10.542Z,24.00
2018-09-11T10:06:44.126Z,24.40
2018-09-11T10:09:17.539Z,24.60
2018-09-11T10:11:51.016Z,24.60
2018-09-11T10:14:24.387Z,24.50
2018-09-11T10:16:57.779Z,24.40
2018-09-11T10:19:31.288Z,24.50
2018-09-11T10:22:04.990Z,24.70
2018-09-11T10:24:38.446Z,24.90
2018-09-11T10:27:12.530Z,25.10
2018-09-11T10:29:45.939Z,25.10
2018-09-11T10:32:19.353Z,25.00
2018-09-11T10:34:54.551Z,25.20
2018-09-11T10:37:28.026Z,25.40
2018-09-11T10:40:01.461Z,25.40
2018-09-11T10:42:34.862Z,25.60
2018-09-11T10:45:08.327Z,25.60
2018-09-11T10:47:41.887Z,25.70
2018-09-11T10:50:15.323Z,25.90
2018-09-11T10:52:48.723Z,25.80
2018-09-11T10:55:22.146Z,25.80
2018-09-11T10:57:55.600Z,25.90
2018-09-11T11:00:29.354Z,26.10
2018-09-11T11:03:02.902Z,26.30
2018-09-11T11:05:36.327Z,26.30
2018-09-11T11:08:09.804Z,26.30
2018-09-11T11:10:43.226Z,26.20
2018-09-11T11:13:16.612Z,26.20
2018-09-11T11:15:50.022Z,26.30
2018-09-11T11:18:23.492Z,26.30
2018-09-11T11:20:56.932Z,26.30
2018-09-11T11:23:30.429Z,26.50
2018-09-11T11:26:03.864Z,26.50
2018-09-11T11:28:37.256Z,26.60
2018-09-11T11:31:11.723Z,26.50
2018-09-11T11:33:45.115Z,26.30
2018-09-11T11:36:18.651Z,26.20
2018-09-11T11:38:51.961Z,26.20
2018-09-11T11:41:25.374Z,26.40
2018-09-11T11:43:58.771Z,26.50
2018-09-11T11:46:32.227Z,26.60
2018-09-11T11:49:05.663Z,26.80
2018-09-11T11:51:39.114Z,27.00
2018-09-11T11:54:12.504Z,26.90
2018-09-11T11:56:45.923Z,26.80
2018-09-11T11:59:19.322Z,26.80
2018-09-11T12:01:52.776Z,26.90
2018-09-11T12:04:26.308Z,27.00
2018-09-11T12:06:59.709Z,27.00
2018-09-11T12:09:33.106Z,27.00
2018-09-11T12:12:06.634Z,27.30
2018-09-11T12:14:40.029Z,27.30
2018-09-11T12:17:13.435Z,27.30
2018-09-11T12:19:46.826Z,27.30
2018-09-11T12:22:20.259Z,27.30
2018-09-11T12:24:53.650Z,27.00
2018-09-11T12:27:27.081Z,27.00
2018-09-11T12:30:00.484Z,27.00
2018-09-11T12:32:33.906Z,27.10
2018-09-11T12:35:07.356Z,27.30
2018-09-11T12:37:40.775Z,27.40
2018-09-11T12:40:14.194Z,27.50
2018-09-11T12:42:47.668Z,27.40
2018-09-11T12:45:21.143Z,27.20
2018-09-11T12:47:54.717Z,27.40
2018-09-11T12:50:28.544Z,27.50
2018-09-11T12:53:02.130Z,27.60
2018-09-11T12:55:35.643Z,27.60
2018-09-11T12:58:09.069Z,27.60
2018-09-11T13:00:42.627Z,27.60
2018-09-11T13:03:16.045Z,27.70
2018-09-11T13:05:49.539Z,27.70
2018-09-11T13:08:22.959Z,27.90
2018-09-11T13:10:56.357Z,27.80
2018-09-11T13:13:29.835Z,27.80
2018-09-11T13:16:03.234Z,27.80
2018-09-11T13:18:36.655Z,27.80
2018-09-11T13:21:10.143Z,27.80
2018-09-11T13:23:43.557Z,27.90
2018-09-11T13:26:17.238Z,28.00
2018-09-11T13:28:50.791Z,28.00
2018-09-11T13:31:24.207Z,28.10
2018-09-11T13:33:57.815Z,28.10
2018-09-11T13:36:31.206Z,28.20
2018-09-11T13:39:06.124Z,28.10
2018-09-11T13:41:39.661Z,28.20
2018-09-11T13:44:13.078Z,28.10
2018-09-11T13:46:46.716Z,28.10
2018-09-11T13:49:20.162Z,28.10
2018-09-11T13:51:53.626Z,28.10
2018-09-11T13:54:27.099Z,28.20
2018-09-11T13:57:00.493Z,28.20
2018-09-11T13:59:33.948Z,28.30
2018-09-11T14:02:07.607Z,28.30
2018-09-11T14:04:41.071Z,28.30
2018-09-11T14:07:14.567Z,28.20
2018-09-11T14:09:48.031Z,28.10
2018-09-11T14:12:21.442Z,28.20
2018-09-11T14:14:54.934Z,28.30
2018-09-11T14:17:28.354Z,28.20
2018-09-11T14:20:01.759Z,28.30
2018-09-11T14:22:35.164Z,28.30
2018-09-11T14:25:08.595Z,28.30
2018-09-11T14:27:42.040Z,28.50
2018-09-11T14:30:16.081Z,28.50
2018-09-11T14:32:49.513Z,28.50
2018-09-11T14:35:22.923Z,28.60
2018-09-11T14:37:56.405Z,28.60
2018-09-11T14:40:29.818Z,28.60
2018-09-11T14:43:03.268Z,28.60
2018-09-11T14:45:36.715Z,28.70
2018-09-11T14:48:10.151Z,28.70
2018-09-11T14:50:43.626Z,28.80
2018-09-11T14:53:17.038Z,28.80
2018-09-11T14:55:50.456Z,28.70
2018-09-11T14:58:23.947Z,28.90
2018-09-11T15:00:57.336Z,28.90
2018-09-11T15:03:30.747Z,29.00
2018-09-11T15:06:04.151Z,29.00
2018-09-11T15:08:37.618Z,29.00
2018-09-11T15:11:11.043Z,29.00
2018-09-11T15:13:44.455Z,28.90
2018-09-11T15:16:17.855Z,29.00
2018-09-11T15:18:51.287Z,29.00
2018-09-11T15:21:24.671Z,29.10
2018-09-11T15:23:58.114Z,29.00
2018-09-11T15:26:31.511Z,29.00
2018-09-11T15:29:05.163Z,28.90
2018-09-11T15:31:38.557Z,28.90
2018-09-11T15:34:12.032Z,28.90
2018-09-11T15:36:45.451Z,28.90
2018-09-11T15:39:18.861Z,29.00
2018-09-11T15:41:52.360Z,29.10
2018-09-11T15:44:26.074Z,29.10
2018-09-11T15:46:59.505Z,29.20
2018-09-11T15:49:32.933Z,29.10
2018-09-11T15:52:06.471Z,29.00
2018-09-11T15:54:39.891Z,29.10
2018-09-11T15:57:13.286Z,29.20
2018-09-11T15:59:46.695Z,29.20
2018-09-11T16:02:20.079Z,29.20
2018-09-11T16:04:53.487Z,29.20
2018-09-11T16:07:26.879Z,29.20
2018-09-11T16:10:00.301Z,29.20
2018-09-11T16:12:33.698Z,29.30
2018-09-11T16:15:07.221Z,29.30
2018-09-11T16:17:40.660Z,29.30
2018-09-11T16:20:14.109Z,29.40
2018-09-11T16:22:47.515Z,29.50
2018-09-11T16:25:20.956Z,29.40
2018-09-11T16:27:54.363Z,29.30
2018-09-11T16:30:27.792Z,29.40
2018-09-11T16:33:01.742Z,29.40
2018-09-11T16:35:35.163Z,29.50
2018-09-11T16:38:08.580Z,29.50
2018-09-11T16:40:43.390Z,29.60
2018-09-11T16:43:16.864Z,29.60
2018-09-11T16:45:50.303Z,29.60
2018-09-11T16:48:23.766Z,29.60
2018-09-11T16:50:57.184Z,29.60
2018-09-11T16:53:30.643Z,29.60
2018-09-11T16:56:04.083Z,29.60
2018-09-11T16:58:37.486Z,29.50
2018-09-11T17:01:11.040Z,29.50
2018-09-11T17:03:44.471Z,29.50
2018-09-11T17:06:17.920Z,29.40
2018-09-11T17:08:51.338Z,29.40
2018-09-11T17:11:24.880Z,29.40
2018-09-11T17:13:58.270Z,29.30
2018-09-11T17:16:32.763Z,29.20
2018-09-11T17:19:06.236Z,29.20
2018-09-11T17:21:39.658Z,29.10
2018-09-11T17:24:13.067Z,29.00
2018-09-11T17:26:46.496Z,29.00
2018-09-11T17:29:20.140Z,28.90
2018-09-11T17:31:54.303Z,28.80
2018-09-11T17:34:28.772Z,28.70
2018-09-11T17:37:02.271Z,28.70
2018-09-11T17:39:35.775Z,28.60
2018-09-11T17:42:09.366Z,28.60
2018-09-11T17:44:42.771Z,28.50
2018-09-11T17:47:16.219Z,28.40
2018-09-11T17:49:49.687Z,28.30
2018-09-11T17:52:23.172Z,28.20
2018-09-11T17:54:56.582Z,28.10
2018-09-11T17:57:30.288Z,28.00
2018-09-11T18:00:03.775Z,27.90
2018-09-11T18:02:37.204Z,27.80
2018-09-11T18:05:10.602Z,27.80
2018-09-11T18:07:44.132Z,27.70
2018-09-11T18:10:17.571Z,27.60
2018-09-11T18:12:51.005Z,27.60
2018-09-11T18:15:24.394Z,27.50
2018-09-11T18:17:57.810Z,27.40
2018-09-11T18:20:31.277Z,27.30
2018-09-11T18:23:04.790Z,27.30
2018-09-11T18:25:38.283Z,27.20
2018-09-11T18:28:11.689Z,27.10
2018-09-11T18:30:45.177Z,27.00
2018-09-11T18:33:18.662Z,26.90
2018-09-11T18:35:52.055Z,26.90
2018-09-11T18:38:25.555Z,26.80
2018-09-11T18:40:58.966Z,26.80
2018-09-11T18:43:32.382Z,26.70
2018-09-11T18:46:05.849Z,26.70
2018-09-11T18:48:39.364Z,26.70
2018-09-11T18:51:12.778Z,26.60
2018-09-11T18:53:46.183Z,26.60
2018-09-11T18:56:19.571Z,26.50
2018-09-11T18:58:53.242Z,26.50
2018-09-11T19:01:26.644Z,26.40
2018-09-11T19:04:00.135Z,26.30
2018-09-11T19:06:33.617Z,26.30
2018-09-11T19:09:08.781Z,26.20
2018-09-11T19:11:42.390Z,26.10
2018-09-11T19:14:15.870Z,26.10
2018-09-11T19:16:49.556Z,26.00
2018-09-11T19:19:22.914Z,25.90
2018-09-11T19:21:56.358Z,25.80
2018-09-11T19:24:29.762Z,25.80
2018-09-11T19:27:03.390Z,25.70
2018-09-11T19:29:36.779Z,25.70
2018-09-11T19:32:10.291Z,25.70
2018-09-11T19:34:43.775Z,25.60
2018-09-11T19:37:17.323Z,25.60
2018-09-11T19:39:50.735Z,25.60
2018-09-11T19:42:24.223Z,25.50
2018-09-11T19:44:57.748Z,25.50
2018-09-11T19:47:31.423Z,25.50
2018-09-11T19:50:06.076Z,25.40
2018-09-11T19:52:39.484Z,25.40
2018-09-11T19:55:13.056Z,25.40
2018-09-11T19:57:46.522Z,25.30
2018-09-11T20:00:19.906Z,25.30
2018-09-11T20:02:53.307Z,25.20
2018-09-11T20:05:26.906Z,25.20
2018-09-11T20:08:00.627Z,25.10
2018-09-11T20:10:34.099Z,25.10
2018-09-11T20:13:07.934Z,25.10
2018-09-11T20:15:41.371Z,25.00
2018-09-11T20:18:14.778Z,25.00
2018-09-11T20:20:48.182Z,24.90
2018-09-11T20:23:21.631Z,24.90
2018-09-11T20:25:55.042Z,24.90
2018-09-11T20:28:28.516Z,24.80
2018-09-11T20:31:01.940Z,24.80
2018-09-11T20:33:35.399Z,24.70
2018-09-11T20:36:08.808Z,24.60
2018-09-11T20:38:42.245Z,24.60
2018-09-11T20:41:15.779Z,24.60
2018-09-11T20:43:49.527Z,24.50
2018-09-11T20:46:22.922Z,24.50
2018-09-11T20:48:56.340Z,24.50
2018-09-11T20:51:29.784Z,24.40
2018-09-11T20:54:03.250Z,24.60
2018-09-11T20:56:36.642Z,24.50
2018-09-11T20:59:10.058Z,24.50
2018-09-11T21:01:43.446Z,24.40
2018-09-11T21:04:16.855Z,24.30
2018-09-11T21:06:50.254Z,24.30
2018-09-11T21:09:24.560Z,24.30
2018-09-11T21:11:57.952Z,24.30
2018-09-11T21:14:32.389Z,24.20
2018-09-11T21:17:05.783Z,24.20
2018-09-11T21:19:39.198Z,24.20
2018-09-11T21:22:12.598Z,24.10
2018-09-11T21:24:46.016Z,24.10
2018-09-11T21:27:19.455Z,24.10
2018-09-11T21:29:52.870Z,24.00
2018-09-11T21:32:26.259Z,24.00
2018-09-11T21:34:59.888Z,23.90
2018-09-11T21:37:33.302Z,23.90
2018-09-11T21:40:06.774Z,23.90
2018-09-11T21:42:40.170Z,23.90
2018-09-11T21:45:13.638Z,23.70
2018-09-11T21:47:48.051Z,23.60
2018-09-11T21:50:21.469Z,23.60
2018-09-11T21:52:54.947Z,23.40
2018-09-11T21:55:28.358Z,23.40
2018-09-11T21:58:01.753Z,23.50
2018-09-11T22:00:35.207Z,23.20
2018-09-11T22:03:08.601Z,23.40
2018-09-11T22:05:42.087Z,23.50
2018-09-11T22:08:15.513Z,23.10
2018-09-11T22:10:48.925Z,23.00
2018-09-11T22:13:22.323Z,23.00
2018-09-11T22:15:55.732Z,23.00
2018-09-11T22:18:29.192Z,22.50
2018-09-11T22:21:02.606Z,22.50
2018-09-11T22:23:35.995Z,22.60
2018-09-11T22:26:09.406Z,22.30
2018-09-11T22:28:42.818Z,22.10
2018-09-11T22:31:16.227Z,22.10
2018-09-11T22:33:49.614Z,22.00
2018-09-11T22:36:23.031Z,21.90
2018-09-11T22:38:56.469Z,21.80
2018-09-11T22:41:29.919Z,21.80
2018-09-11T22:44:03.385Z,21.90
2018-09-11T22:46:36.846Z,22.10
2018-09-11T22:49:10.297Z,22.10
2018-09-11T22:51:43.732Z,22.10
2018-09-11T22:54:17.126Z,22.20
2018-09-11T22:56:50.531Z,22.20
2018-09-11T22:59:23.962Z,22.20
2018-09-11T23:01:57.365Z,22.20
2018-09-11T23:04:30.769Z,22.20
2018-09-11T23:07:04.195Z,22.20
2018-09-11T23:09:37.595Z,22.20
2018-09-11T23:12:11.019Z,22.20
2018-09-11T23:14:44.466Z,22.20
2018-09-11T23:17:17.896Z,22.20
2018-09-11T23:19:51.295Z,22.20
2018-09-11T23:22:24.702Z,22.20
2018-09-11T23:24:58.127Z,22.10
2018-09-11T23:27:33.606Z,22.00
2018-09-11T23:30:07.014Z,21.90
2018-09-11T23:32:40.421Z,21.90
2018-09-11T23:35:13.802Z,21.90
2018-09-11T23:37:47.240Z,21.80
2018-09-11T23:40:20.640Z,21.80
2018-09-11T23:42:55.128Z,21.80
2018-09-11T23:45:28.527Z,21.80
2018-09-11T23:48:01.942Z,21.80
2018-09-11T23:50:35.335Z,21.80
2018-09-11T23:53:08.837Z,21.80
2018-09-11T23:55:42.295Z,21.80
2018-09-11T23:58:15.710Z,21.70
